sensor_id;sensor_type;location;lat;lon;timestamp;temperature;humidity
43249;DHT22;29216;51.248;6.808;2023-02-15T00:00:04;4.20;99.90
43249;DHT22;29216;51.248;6.808;2023-02-15T00:02:30;4.20;99.90
43249;DHT22;29216;51.248;6.808;2023-02-15T00:04:56;4.10;99.90
43249;DHT22;29216;51.248;6.808;2023-02-15T00:07:22;4.10;99.90
43249;DHT22;29216;51.248;6.808;2023-02-15T00:09:47;4.00;99.90
43249;DHT22;29216;51.248;6.808;2023-02-15T00:12:15;3.90;99.90
43249;DHT22;29216;51.248;6.808;2023-02-15T00:14:41;4.00;99.90
43249;DHT22;29216;51.248;6.808;2023-02-15T00:17:07;3.90;99.90
43249;DHT22;29216;51.248;6.808;2023-02-15T00:19:33;3.90;99.90
43249;DHT22;29216;51.248;6.808;2023-02-15T00:21:58;3.90;99.90
43249;DHT22;29216;51.248;6.808;2023-02-15T00:24:24;3.80;99.90
43249;DHT22;29216;51.248;6.808;2023-02-15T00:26:50;3.80;99.90
43249;DHT22;29216;51.248;6.808;2023-02-15T00:29:17;3.80;99.90
43249;DHT22;29216;51.248;6.808;2023-02-15T00:31:43;3.70;99.90
43249;DHT22;29216;51.248;6.808;2023-02-15T00:34:17;3.70;99.90
43249;DHT22;29216;51.248;6.808;2023-02-15T00:36:44;3.70;99.90
43249;DHT22;29216;51.248;6.808;2023-02-15T00:39:10;3.70;99.90
43249;DHT22;29216;51.248;6.808;2023-02-15T00:41:35;3.70;99.90
43249;DHT22;29216;51.248;6.808;2023-02-15T00:44:02;3.80;99.90
43249;DHT22;29216;51.248;6.808;2023-02-15T00:46:27;3.70;99.90
43249;DHT22;29216;51.248;6.808;2023-02-15T00:48:53;3.70;99.90
43249;DHT22;29216;51.248;6.808;2023-02-15T00:51:19;3.70;99.90
43249;DHT22;29216;51.248;6.808;2023-02-15T00:53:45;3.70;99.90
43249;DHT22;29216;51.248;6.808;2023-02-15T00:56:11;3.70;99.90
43249;DHT22;29216;51.248;6.808;2023-02-15T00:58:37;3.70;99.90
43249;DHT22;29216;51.248;6.808;2023-02-15T01:01:09;3.70;99.90
43249;DHT22;29216;51.248;6.808;2023-02-15T01:03:35;3.60;99.90
43249;DHT22;29216;51.248;6.808;2023-02-15T01:06:02;3.60;99.90
43249;DHT22;29216;51.248;6.808;2023-02-15T01:08:28;3.60;99.90
43249;DHT22;29216;51.248;6.808;2023-02-15T01:10:54;3.50;99.90
43249;DHT22;29216;51.248;6.808;2023-02-15T01:13:20;3.40;99.90
43249;DHT22;29216;51.248;6.808;2023-02-15T01:15:52;3.40;99.90
43249;DHT22;29216;51.248;6.808;2023-02-15T01:18:18;3.40;99.90
43249;DHT22;29216;51.248;6.808;2023-02-15T01:20:43;3.40;99.90
43249;DHT22;29216;51.248;6.808;2023-02-15T01:23:09;3.40;99.90
43249;DHT22;29216;51.248;6.808;2023-02-15T01:25:35;3.40;99.90
43249;DHT22;29216;51.248;6.808;2023-02-15T01:28:01;3.40;99.90
43249;DHT22;29216;51.248;6.808;2023-02-15T01:30:27;3.40;99.90
43249;DHT22;29216;51.248;6.808;2023-02-15T01:32:53;3.40;99.90
43249;DHT22;29216;51.248;6.808;2023-02-15T01:35:18;3.40;99.90
43249;DHT22;29216;51.248;6.808;2023-02-15T01:37:44;3.40;99.90
43249;DHT22;29216;51.248;6.808;2023-02-15T01:40:16;3.30;99.90
43249;DHT22;29216;51.248;6.808;2023-02-15T01:42:42;3.40;99.90
43249;DHT22;29216;51.248;6.808;2023-02-15T01:45:25;3.30;99.90
43249;DHT22;29216;51.248;6.808;2023-02-15T01:50:41;3.30;99.90
43249;DHT22;29216;51.248;6.808;2023-02-15T01:53:32;3.30;99.90
43249;DHT22;29216;51.248;6.808;2023-02-15T01:56:08;3.20;99.90
43249;DHT22;29216;51.248;6.808;2023-02-15T01:58:35;3.10;99.90
43249;DHT22;29216;51.248;6.808;2023-02-15T02:01:02;3.10;99.90
43249;DHT22;29216;51.248;6.808;2023-02-15T02:06:21;3.00;99.90
43249;DHT22;29216;51.248;6.808;2023-02-15T02:08:48;2.90;99.90
43249;DHT22;29216;51.248;6.808;2023-02-15T02:11:14;2.90;99.90
43249;DHT22;29216;51.248;6.808;2023-02-15T02:13:42;2.90;99.90
43249;DHT22;29216;51.248;6.808;2023-02-15T02:16:55;3.00;99.90
43249;DHT22;29216;51.248;6.808;2023-02-15T02:27:22;3.00;99.90
43249;DHT22;29216;51.248;6.808;2023-02-15T02:38:45;2.90;99.90
43249;DHT22;29216;51.248;6.808;2023-02-15T02:46:52;2.90;99.90
43249;DHT22;29216;51.248;6.808;2023-02-15T02:49:37;2.80;99.90
43249;DHT22;29216;51.248;6.808;2023-02-15T03:00:29;2.80;99.90
43249;DHT22;29216;51.248;6.808;2023-02-15T03:03:00;2.80;99.90
43249;DHT22;29216;51.248;6.808;2023-02-15T03:05:31;2.80;99.90
43249;DHT22;29216;51.248;6.808;2023-02-15T03:07:58;2.80;99.90
43249;DHT22;29216;51.248;6.808;2023-02-15T03:10:31;2.80;99.90
43249;DHT22;29216;51.248;6.808;2023-02-15T03:12:58;2.80;99.90
43249;DHT22;29216;51.248;6.808;2023-02-15T03:15:31;2.80;99.90
43249;DHT22;29216;51.248;6.808;2023-02-15T03:18:22;2.70;99.90
43249;DHT22;29216;51.248;6.808;2023-02-15T03:20:49;2.60;99.90
43249;DHT22;29216;51.248;6.808;2023-02-15T03:23:21;2.60;99.90
43249;DHT22;29216;51.248;6.808;2023-02-15T03:25:51;2.60;99.90
43249;DHT22;29216;51.248;6.808;2023-02-15T03:28:29;2.60;99.90
43249;DHT22;29216;51.248;6.808;2023-02-15T03:31:00;2.60;99.90
43249;DHT22;29216;51.248;6.808;2023-02-15T03:33:28;2.60;99.90
43249;DHT22;29216;51.248;6.808;2023-02-15T03:38:54;2.50;99.90
43249;DHT22;29216;51.248;6.808;2023-02-15T03:41:27;2.50;99.90
43249;DHT22;29216;51.248;6.808;2023-02-15T03:44:10;2.50;99.90
43249;DHT22;29216;51.248;6.808;2023-02-15T03:49:41;2.50;99.90
43249;DHT22;29216;51.248;6.808;2023-02-15T03:52:09;2.50;99.90
43249;DHT22;29216;51.248;6.808;2023-02-15T03:54:37;2.50;99.90
43249;DHT22;29216;51.248;6.808;2023-02-15T03:57:20;2.50;99.90
43249;DHT22;29216;51.248;6.808;2023-02-15T04:00:25;2.50;99.90
43249;DHT22;29216;51.248;6.808;2023-02-15T04:05:41;2.40;99.90
43249;DHT22;29216;51.248;6.808;2023-02-15T04:08:08;2.40;99.90
43249;DHT22;29216;51.248;6.808;2023-02-15T04:10:33;2.40;99.90
43249;DHT22;29216;51.248;6.808;2023-02-15T04:13:29;2.40;99.90
43249;DHT22;29216;51.248;6.808;2023-02-15T04:15:55;2.40;99.90
43249;DHT22;29216;51.248;6.808;2023-02-15T04:18:40;2.30;99.90
43249;DHT22;29216;51.248;6.808;2023-02-15T04:21:26;2.40;99.90
43249;DHT22;29216;51.248;6.808;2023-02-15T04:24:12;2.40;99.90
43249;DHT22;29216;51.248;6.808;2023-02-15T04:26:56;2.40;99.90
43249;DHT22;29216;51.248;6.808;2023-02-15T04:29:23;2.30;99.90
43249;DHT22;29216;51.248;6.808;2023-02-15T04:31:50;2.30;99.90
43249;DHT22;29216;51.248;6.808;2023-02-15T04:34:16;2.30;99.90
43249;DHT22;29216;51.248;6.808;2023-02-15T04:36:45;2.30;99.90
43249;DHT22;29216;51.248;6.808;2023-02-15T04:39:15;2.30;99.90
43249;DHT22;29216;51.248;6.808;2023-02-15T04:41:41;2.20;99.90
43249;DHT22;29216;51.248;6.808;2023-02-15T04:44:07;2.20;99.90
43249;DHT22;29216;51.248;6.808;2023-02-15T04:46:32;2.20;99.90
43249;DHT22;29216;51.248;6.808;2023-02-15T04:48:58;2.20;99.90
43249;DHT22;29216;51.248;6.808;2023-02-15T04:51:24;2.10;99.90
43249;DHT22;29216;51.248;6.808;2023-02-15T04:53:49;2.20;99.90
43249;DHT22;29216;51.248;6.808;2023-02-15T04:56:18;2.20;99.90
43249;DHT22;29216;51.248;6.808;2023-02-15T04:58:43;2.20;99.90
43249;DHT22;29216;51.248;6.808;2023-02-15T05:01:12;2.20;99.90
43249;DHT22;29216;51.248;6.808;2023-02-15T05:03:37;2.10;99.90
43249;DHT22;29216;51.248;6.808;2023-02-15T05:06:04;2.10;99.90
43249;DHT22;29216;51.248;6.808;2023-02-15T05:08:30;2.10;99.90
43249;DHT22;29216;51.248;6.808;2023-02-15T05:10:56;2.10;99.90
43249;DHT22;29216;51.248;6.808;2023-02-15T05:13:22;2.00;99.90
43249;DHT22;29216;51.248;6.808;2023-02-15T05:15:52;2.00;99.90
43249;DHT22;29216;51.248;6.808;2023-02-15T05:18:19;2.00;99.90
43249;DHT22;29216;51.248;6.808;2023-02-15T05:20:45;2.00;99.90
43249;DHT22;29216;51.248;6.808;2023-02-15T05:23:14;2.00;99.90
43249;DHT22;29216;51.248;6.808;2023-02-15T05:25:40;2.00;99.90
43249;DHT22;29216;51.248;6.808;2023-02-15T05:28:27;2.00;99.90
43249;DHT22;29216;51.248;6.808;2023-02-15T05:31:03;2.00;99.90
43249;DHT22;29216;51.248;6.808;2023-02-15T05:33:29;2.00;99.90
43249;DHT22;29216;51.248;6.808;2023-02-15T05:35:55;2.00;99.90
43249;DHT22;29216;51.248;6.808;2023-02-15T05:38:20;2.00;99.90
43249;DHT22;29216;51.248;6.808;2023-02-15T05:40:46;2.00;99.90
43249;DHT22;29216;51.248;6.808;2023-02-15T05:43:11;2.00;99.90
43249;DHT22;29216;51.248;6.808;2023-02-15T05:45:37;1.90;99.90
43249;DHT22;29216;51.248;6.808;2023-02-15T05:48:03;1.90;99.90
43249;DHT22;29216;51.248;6.808;2023-02-15T05:50:28;1.90;99.90
43249;DHT22;29216;51.248;6.808;2023-02-15T05:52:54;1.90;99.90
43249;DHT22;29216;51.248;6.808;2023-02-15T05:55:19;1.90;99.90
43249;DHT22;29216;51.248;6.808;2023-02-15T05:57:45;1.90;99.90
43249;DHT22;29216;51.248;6.808;2023-02-15T06:00:12;1.90;99.90
43249;DHT22;29216;51.248;6.808;2023-02-15T06:02:39;1.80;99.90
43249;DHT22;29216;51.248;6.808;2023-02-15T06:05:05;1.80;99.90
43249;DHT22;29216;51.248;6.808;2023-02-15T06:07:31;1.80;99.90
43249;DHT22;29216;51.248;6.808;2023-02-15T06:09:57;1.80;99.90
43249;DHT22;29216;51.248;6.808;2023-02-15T06:12:22;1.80;99.90
43249;DHT22;29216;51.248;6.808;2023-02-15T06:14:48;1.80;99.90
43249;DHT22;29216;51.248;6.808;2023-02-15T06:17:14;1.80;99.90
43249;DHT22;29216;51.248;6.808;2023-02-15T06:19:39;1.70;99.90
43249;DHT22;29216;51.248;6.808;2023-02-15T06:22:05;1.70;99.90
43249;DHT22;29216;51.248;6.808;2023-02-15T06:24:31;1.70;99.90
43249;DHT22;29216;51.248;6.808;2023-02-15T06:27:00;1.70;99.90
43249;DHT22;29216;51.248;6.808;2023-02-15T06:29:26;1.60;99.90
43249;DHT22;29216;51.248;6.808;2023-02-15T06:31:51;1.60;99.90
43249;DHT22;29216;51.248;6.808;2023-02-15T06:34:17;1.60;99.90
43249;DHT22;29216;51.248;6.808;2023-02-15T06:36:42;1.50;99.90
43249;DHT22;29216;51.248;6.808;2023-02-15T06:39:08;1.60;99.90
43249;DHT22;29216;51.248;6.808;2023-02-15T06:41:34;1.60;99.90
43249;DHT22;29216;51.248;6.808;2023-02-15T06:43:59;1.60;99.90
43249;DHT22;29216;51.248;6.808;2023-02-15T06:46:25;1.60;99.90
43249;DHT22;29216;51.248;6.808;2023-02-15T06:48:51;1.70;99.90
43249;DHT22;29216;51.248;6.808;2023-02-15T06:51:17;1.70;99.90
43249;DHT22;29216;51.248;6.808;2023-02-15T06:53:42;1.80;99.90
43249;DHT22;29216;51.248;6.808;2023-02-15T06:56:09;1.80;99.90
43249;DHT22;29216;51.248;6.808;2023-02-15T06:58:36;1.90;99.90
43249;DHT22;29216;51.248;6.808;2023-02-15T07:01:02;1.90;99.90
43249;DHT22;29216;51.248;6.808;2023-02-15T07:03:29;1.90;99.90
43249;DHT22;29216;51.248;6.808;2023-02-15T07:05:59;1.90;99.90
43249;DHT22;29216;51.248;6.808;2023-02-15T07:08:26;1.90;99.90
43249;DHT22;29216;51.248;6.808;2023-02-15T07:10:52;2.00;99.90
43249;DHT22;29216;51.248;6.808;2023-02-15T07:13:19;2.00;99.90
43249;DHT22;29216;51.248;6.808;2023-02-15T07:15:48;2.00;99.90
43249;DHT22;29216;51.248;6.808;2023-02-15T07:18:21;2.10;99.90
43249;DHT22;29216;51.248;6.808;2023-02-15T07:20:47;2.10;99.90
43249;DHT22;29216;51.248;6.808;2023-02-15T07:23:13;2.10;99.90
43249;DHT22;29216;51.248;6.808;2023-02-15T07:25:41;2.10;99.90
43249;DHT22;29216;51.248;6.808;2023-02-15T07:28:07;2.20;99.90
43249;DHT22;29216;51.248;6.808;2023-02-15T07:30:34;2.30;99.90
43249;DHT22;29216;51.248;6.808;2023-02-15T07:33:03;2.50;99.90
43249;DHT22;29216;51.248;6.808;2023-02-15T07:35:55;2.90;99.90
43249;DHT22;29216;51.248;6.808;2023-02-15T07:38:22;3.40;99.90
43249;DHT22;29216;51.248;6.808;2023-02-15T07:40:48;4.00;99.60
43249;DHT22;29216;51.248;6.808;2023-02-15T07:43:14;4.80;81.00
43249;DHT22;29216;51.248;6.808;2023-02-15T07:45:40;5.50;42.70
43249;DHT22;29216;51.248;6.808;2023-02-15T07:48:06;6.20;8.20
43249;DHT22;29216;51.248;6.808;2023-02-15T07:50:33;6.60;1.00
43249;DHT22;29216;51.248;6.808;2023-02-15T07:53:01;7.30;1.00
43249;DHT22;29216;51.248;6.808;2023-02-15T07:55:27;7.90;1.00
43249;DHT22;29216;51.248;6.808;2023-02-15T07:57:52;8.20;1.00
43249;DHT22;29216;51.248;6.808;2023-02-15T08:00:20;8.40;1.00
43249;DHT22;29216;51.248;6.808;2023-02-15T08:02:51;8.90;1.00
43249;DHT22;29216;51.248;6.808;2023-02-15T08:05:38;9.20;1.00
43249;DHT22;29216;51.248;6.808;2023-02-15T08:08:04;9.20;1.00
43249;DHT22;29216;51.248;6.808;2023-02-15T08:10:30;9.20;1.00
43249;DHT22;29216;51.248;6.808;2023-02-15T08:13:15;8.70;1.00
43249;DHT22;29216;51.248;6.808;2023-02-15T08:15:48;7.90;1.00
43249;DHT22;29216;51.248;6.808;2023-02-15T08:18:13;7.10;1.00
43249;DHT22;29216;51.248;6.808;2023-02-15T08:20:39;6.50;1.00
43249;DHT22;29216;51.248;6.808;2023-02-15T08:23:04;6.00;34.30
43249;DHT22;29216;51.248;6.808;2023-02-15T08:25:30;5.70;1.00
43249;DHT22;29216;51.248;6.808;2023-02-15T08:27:55;5.50;1.00
43249;DHT22;29216;51.248;6.808;2023-02-15T08:30:21;5.10;1.00
43249;DHT22;29216;51.248;6.808;2023-02-15T08:32:46;5.10;1.00
43249;DHT22;29216;51.248;6.808;2023-02-15T08:35:12;5.00;1.00
43249;DHT22;29216;51.248;6.808;2023-02-15T08:37:38;4.90;1.00
43249;DHT22;29216;51.248;6.808;2023-02-15T08:40:04;4.80;1.00
43249;DHT22;29216;51.248;6.808;2023-02-15T08:42:32;4.80;1.00
43249;DHT22;29216;51.248;6.808;2023-02-15T08:44:58;4.80;1.00
43249;DHT22;29216;51.248;6.808;2023-02-15T08:47:24;4.80;1.00
43249;DHT22;29216;51.248;6.808;2023-02-15T08:49:49;4.90;1.00
43249;DHT22;29216;51.248;6.808;2023-02-15T08:52:16;4.90;1.00
43249;DHT22;29216;51.248;6.808;2023-02-15T08:54:42;4.90;1.00
43249;DHT22;29216;51.248;6.808;2023-02-15T08:57:07;5.00;1.00
43249;DHT22;29216;51.248;6.808;2023-02-15T08:59:33;5.10;1.00
43249;DHT22;29216;51.248;6.808;2023-02-15T09:01:59;5.10;1.00
43249;DHT22;29216;51.248;6.808;2023-02-15T09:04:26;5.20;1.00
43249;DHT22;29216;51.248;6.808;2023-02-15T09:06:51;5.20;1.00
43249;DHT22;29216;51.248;6.808;2023-02-15T09:09:18;5.20;1.00
43249;DHT22;29216;51.248;6.808;2023-02-15T09:11:46;5.30;1.00
43249;DHT22;29216;51.248;6.808;2023-02-15T09:14:18;5.40;1.00
43249;DHT22;29216;51.248;6.808;2023-02-15T09:16:46;5.40;1.00
43249;DHT22;29216;51.248;6.808;2023-02-15T09:19:17;5.50;1.00
43249;DHT22;29216;51.248;6.808;2023-02-15T09:21:44;5.50;1.00
43249;DHT22;29216;51.248;6.808;2023-02-15T09:24:11;5.50;1.00
43249;DHT22;29216;51.248;6.808;2023-02-15T09:26:40;5.60;1.00
43249;DHT22;29216;51.248;6.808;2023-02-15T09:29:06;5.60;1.00
43249;DHT22;29216;51.248;6.808;2023-02-15T09:31:37;5.70;1.00
43249;DHT22;29216;51.248;6.808;2023-02-15T09:34:02;5.70;1.00
43249;DHT22;29216;51.248;6.808;2023-02-15T09:36:34;5.70;1.00
43249;DHT22;29216;51.248;6.808;2023-02-15T09:39:09;5.80;1.00
43249;DHT22;29216;51.248;6.808;2023-02-15T09:47:28;5.90;1.00
43249;DHT22;29216;51.248;6.808;2023-02-15T09:58:18;6.20;1.00
43249;DHT22;29216;51.248;6.808;2023-02-15T10:09:00;6.50;1.00
43249;DHT22;29216;51.248;6.808;2023-02-15T10:11:32;6.60;1.00
43249;DHT22;29216;51.248;6.808;2023-02-15T10:22:22;6.90;1.00
43249;DHT22;29216;51.248;6.808;2023-02-15T10:27:46;7.00;1.00
43249;DHT22;29216;51.248;6.808;2023-02-15T10:30:27;7.10;1.00
43249;DHT22;29216;51.248;6.808;2023-02-15T10:41:19;7.50;1.00
43249;DHT22;29216;51.248;6.808;2023-02-15T10:57:26;8.10;1.00
43249;DHT22;29216;51.248;6.808;2023-02-15T11:06:15;8.30;1.00
43249;DHT22;29216;51.248;6.808;2023-02-15T11:09:03;8.40;1.00
43249;DHT22;29216;51.248;6.808;2023-02-15T11:11:36;8.50;1.00
43249;DHT22;29216;51.248;6.808;2023-02-15T11:16:55;8.60;1.00
43249;DHT22;29216;51.248;6.808;2023-02-15T11:19:31;8.70;1.00
43249;DHT22;29216;51.248;6.808;2023-02-15T11:22:00;8.80;1.00
43249;DHT22;29216;51.248;6.808;2023-02-15T11:24:28;8.90;1.00
43249;DHT22;29216;51.248;6.808;2023-02-15T11:27:02;9.00;1.00
43249;DHT22;29216;51.248;6.808;2023-02-15T11:29:41;9.00;1.00
43249;DHT22;29216;51.248;6.808;2023-02-15T11:32:21;9.00;1.00
43249;DHT22;29216;51.248;6.808;2023-02-15T11:40:34;9.10;1.00
43249;DHT22;29216;51.248;6.808;2023-02-15T11:45:52;9.20;1.00
43249;DHT22;29216;51.248;6.808;2023-02-15T11:48:19;9.30;1.00
43249;DHT22;29216;51.248;6.808;2023-02-15T11:50:45;9.40;1.00
43249;DHT22;29216;51.248;6.808;2023-02-15T11:53:19;9.40;1.00
43249;DHT22;29216;51.248;6.808;2023-02-15T11:55:48;9.50;1.00
43249;DHT22;29216;51.248;6.808;2023-02-15T11:58:30;9.50;1.00
43249;DHT22;29216;51.248;6.808;2023-02-15T12:01:06;9.50;1.00
43249;DHT22;29216;51.248;6.808;2023-02-15T12:03:59;9.60;1.00
43249;DHT22;29216;51.248;6.808;2023-02-15T12:06:42;9.70;1.00
43249;DHT22;29216;51.248;6.808;2023-02-15T12:09:34;9.80;1.00
43249;DHT22;29216;51.248;6.808;2023-02-15T12:12:25;9.80;1.00
43249;DHT22;29216;51.248;6.808;2023-02-15T12:14:53;9.80;1.00
43249;DHT22;29216;51.248;6.808;2023-02-15T12:17:25;9.90;1.00
43249;DHT22;29216;51.248;6.808;2023-02-15T12:19:55;10.00;1.00
43249;DHT22;29216;51.248;6.808;2023-02-15T12:22:27;10.10;1.00
43249;DHT22;29216;51.248;6.808;2023-02-15T12:24:56;10.20;1.00
43249;DHT22;29216;51.248;6.808;2023-02-15T12:27:28;10.30;1.00
43249;DHT22;29216;51.248;6.808;2023-02-15T12:30:06;10.30;99.90
43249;DHT22;29216;51.248;6.808;2023-02-15T12:32:53;10.40;99.90
43249;DHT22;29216;51.248;6.808;2023-02-15T12:35:29;10.40;1.00
43249;DHT22;29216;51.248;6.808;2023-02-15T12:40:34;10.60;99.90
43249;DHT22;29216;51.248;6.808;2023-02-15T12:43:01;10.60;99.90
43249;DHT22;29216;51.248;6.808;2023-02-15T12:45:34;10.60;1.00
43249;DHT22;29216;51.248;6.808;2023-02-15T12:50:44;10.70;99.90
43249;DHT22;29216;51.248;6.808;2023-02-15T12:53:30;10.80;99.90
43249;DHT22;29216;51.248;6.808;2023-02-15T12:55:57;10.80;99.90
43249;DHT22;29216;51.248;6.808;2023-02-15T12:58:25;10.90;99.90
43249;DHT22;29216;51.248;6.808;2023-02-15T13:06:20;11.00;99.90
43249;DHT22;29216;51.248;6.808;2023-02-15T13:08:54;11.10;99.90
43249;DHT22;29216;51.248;6.808;2023-02-15T13:11:29;11.10;99.90
43249;DHT22;29216;51.248;6.808;2023-02-15T13:14:16;11.10;99.90
43249;DHT22;29216;51.248;6.808;2023-02-15T13:16:44;11.20;99.90
43249;DHT22;29216;51.248;6.808;2023-02-15T13:19:38;11.30;99.90
43249;DHT22;29216;51.248;6.808;2023-02-15T13:22:10;11.40;99.90
43249;DHT22;29216;51.248;6.808;2023-02-15T13:24:42;11.40;99.90
43249;DHT22;29216;51.248;6.808;2023-02-15T13:27:18;11.40;99.90
43249;DHT22;29216;51.248;6.808;2023-02-15T13:29:52;11.60;99.90
43249;DHT22;29216;51.248;6.808;2023-02-15T13:32:30;11.60;99.90
43249;DHT22;29216;51.248;6.808;2023-02-15T13:34:58;11.50;99.90
43249;DHT22;29216;51.248;6.808;2023-02-15T13:41:14;11.60;99.90
43249;DHT22;29216;51.248;6.808;2023-02-15T14:03:17;12.10;99.90
43249;DHT22;29216;51.248;6.808;2023-02-15T14:06:14;12.10;99.90
43249;DHT22;29216;51.248;6.808;2023-02-15T14:14:27;12.10;99.90
43249;DHT22;29216;51.248;6.808;2023-02-15T14:19:37;12.10;99.90
43249;DHT22;29216;51.248;6.808;2023-02-15T14:30:38;12.10;99.90
43249;DHT22;29216;51.248;6.808;2023-02-15T14:35:40;11.90;99.90
43249;DHT22;29216;51.248;6.808;2023-02-15T14:41:01;11.80;99.90
43249;DHT22;29216;51.248;6.808;2023-02-15T14:49:37;11.70;1.00
43249;DHT22;29216;51.248;6.808;2023-02-15T14:52:10;11.70;1.00
43249;DHT22;29216;51.248;6.808;2023-02-15T15:04:41;11.70;1.00
43249;DHT22;29216;51.248;6.808;2023-02-15T15:09:39;11.70;1.00
43249;DHT22;29216;51.248;6.808;2023-02-15T15:14:47;11.80;1.00
43249;DHT22;29216;51.248;6.808;2023-02-15T15:22:33;11.90;1.00
43249;DHT22;29216;51.248;6.808;2023-02-15T15:25:04;11.90;1.00
43249;DHT22;29216;51.248;6.808;2023-02-15T15:43:58;11.70;1.00
43249;DHT22;29216;51.248;6.808;2023-02-15T15:49:14;11.60;1.00
43249;DHT22;29216;51.248;6.808;2023-02-15T15:51:42;11.50;1.00
43249;DHT22;29216;51.248;6.808;2023-02-15T15:54:23;11.50;1.00
43249;DHT22;29216;51.248;6.808;2023-02-15T15:56:53;11.40;1.00
43249;DHT22;29216;51.248;6.808;2023-02-15T15:59:22;11.40;1.00
43249;DHT22;29216;51.248;6.808;2023-02-15T16:01:49;11.40;1.00
43249;DHT22;29216;51.248;6.808;2023-02-15T16:04:29;11.30;1.00
43249;DHT22;29216;51.248;6.808;2023-02-15T16:06:56;11.20;1.00
43249;DHT22;29216;51.248;6.808;2023-02-15T16:09:26;11.10;1.00
43249;DHT22;29216;51.248;6.808;2023-02-15T16:11:54;11.10;1.00
43249;DHT22;29216;51.248;6.808;2023-02-15T16:14:35;11.10;1.00
43249;DHT22;29216;51.248;6.808;2023-02-15T16:17:05;11.10;1.00
43249;DHT22;29216;51.248;6.808;2023-02-15T16:19:34;11.00;1.00
43249;DHT22;29216;51.248;6.808;2023-02-15T16:22:01;10.90;1.00
43249;DHT22;29216;51.248;6.808;2023-02-15T16:25:11;10.80;1.00
43249;DHT22;29216;51.248;6.808;2023-02-15T16:32:46;10.60;1.00
43249;DHT22;29216;51.248;6.808;2023-02-15T16:35:15;10.50;1.00
43249;DHT22;29216;51.248;6.808;2023-02-15T16:37:41;10.30;1.00
43249;DHT22;29216;51.248;6.808;2023-02-15T16:42:55;10.00;1.00
43249;DHT22;29216;51.248;6.808;2023-02-15T16:45:24;9.90;1.00
43249;DHT22;29216;51.248;6.808;2023-02-15T16:47:54;9.80;1.00
43249;DHT22;29216;51.248;6.808;2023-02-15T16:50:32;9.70;1.00
43249;DHT22;29216;51.248;6.808;2023-02-15T16:52:59;9.50;1.00
43249;DHT22;29216;51.248;6.808;2023-02-15T16:55:27;9.50;1.00
43249;DHT22;29216;51.248;6.808;2023-02-15T16:58:00;9.40;1.00
43249;DHT22;29216;51.248;6.808;2023-02-15T17:00:31;9.30;1.00
43249;DHT22;29216;51.248;6.808;2023-02-15T17:03:02;9.30;1.00
43249;DHT22;29216;51.248;6.808;2023-02-15T17:05:42;9.20;1.00
43249;DHT22;29216;51.248;6.808;2023-02-15T17:08:23;9.20;1.00
43249;DHT22;29216;51.248;6.808;2023-02-15T17:13:25;9.10;1.00
43249;DHT22;29216;51.248;6.808;2023-02-15T17:18:28;9.10;1.00
43249;DHT22;29216;51.248;6.808;2023-02-15T17:21:00;9.00;1.00
43249;DHT22;29216;51.248;6.808;2023-02-15T17:23:33;9.00;1.00
43249;DHT22;29216;51.248;6.808;2023-02-15T17:26:10;8.90;1.00
43249;DHT22;29216;51.248;6.808;2023-02-15T17:28:36;8.90;1.00
43249;DHT22;29216;51.248;6.808;2023-02-15T17:31:06;8.90;1.00
43249;DHT22;29216;51.248;6.808;2023-02-15T17:36:18;8.80;1.00
43249;DHT22;29216;51.248;6.808;2023-02-15T17:39:05;8.70;1.00
43249;DHT22;29216;51.248;6.808;2023-02-15T17:41:35;8.70;1.00
43249;DHT22;29216;51.248;6.808;2023-02-15T17:44:03;8.80;1.00
43249;DHT22;29216;51.248;6.808;2023-02-15T17:46:33;8.80;1.00
43249;DHT22;29216;51.248;6.808;2023-02-15T17:49:00;8.90;1.00
43249;DHT22;29216;51.248;6.808;2023-02-15T17:51:26;8.90;1.00
43249;DHT22;29216;51.248;6.808;2023-02-15T17:53:52;8.90;1.00
43249;DHT22;29216;51.248;6.808;2023-02-15T17:56:37;9.00;1.00
43249;DHT22;29216;51.248;6.808;2023-02-15T17:59:03;9.00;1.00
43249;DHT22;29216;51.248;6.808;2023-02-15T18:01:36;9.00;1.00
43249;DHT22;29216;51.248;6.808;2023-02-15T18:04:22;9.00;1.00
43249;DHT22;29216;51.248;6.808;2023-02-15T18:07:12;8.90;1.00
43249;DHT22;29216;51.248;6.808;2023-02-15T18:09:56;8.80;1.00
43249;DHT22;29216;51.248;6.808;2023-02-15T18:12:40;8.80;1.00
43249;DHT22;29216;51.248;6.808;2023-02-15T18:15:09;8.80;1.00
43249;DHT22;29216;51.248;6.808;2023-02-15T18:17:45;8.80;1.00
43249;DHT22;29216;51.248;6.808;2023-02-15T18:20:21;8.70;1.00
43249;DHT22;29216;51.248;6.808;2023-02-15T18:22:50;8.70;1.00
43249;DHT22;29216;51.248;6.808;2023-02-15T18:25:19;8.70;1.00
43249;DHT22;29216;51.248;6.808;2023-02-15T18:27:45;8.70;1.00
43249;DHT22;29216;51.248;6.808;2023-02-15T18:30:19;8.60;1.00
43249;DHT22;29216;51.248;6.808;2023-02-15T18:32:47;8.50;1.00
43249;DHT22;29216;51.248;6.808;2023-02-15T18:35:18;8.50;1.00
43249;DHT22;29216;51.248;6.808;2023-02-15T18:37:46;8.50;1.00
43249;DHT22;29216;51.248;6.808;2023-02-15T18:40:21;8.50;1.00
43249;DHT22;29216;51.248;6.808;2023-02-15T18:42:47;8.50;1.00
43249;DHT22;29216;51.248;6.808;2023-02-15T18:45:25;8.60;1.00
43249;DHT22;29216;51.248;6.808;2023-02-15T18:47:53;8.60;1.00
43249;DHT22;29216;51.248;6.808;2023-02-15T18:50:20;8.60;1.00
43249;DHT22;29216;51.248;6.808;2023-02-15T18:52:48;8.60;1.00
43249;DHT22;29216;51.248;6.808;2023-02-15T18:55:20;8.60;1.00
43249;DHT22;29216;51.248;6.808;2023-02-15T18:57:47;8.60;1.00
43249;DHT22;29216;51.248;6.808;2023-02-15T19:00:24;8.60;1.00
43249;DHT22;29216;51.248;6.808;2023-02-15T19:02:54;8.60;1.00
43249;DHT22;29216;51.248;6.808;2023-02-15T19:05:20;8.50;1.00
43249;DHT22;29216;51.248;6.808;2023-02-15T19:07:47;8.50;1.00
43249;DHT22;29216;51.248;6.808;2023-02-15T19:10:22;8.30;1.00
43249;DHT22;29216;51.248;6.808;2023-02-15T19:12:49;8.20;1.00
43249;DHT22;29216;51.248;6.808;2023-02-15T19:15:23;8.20;1.00
43249;DHT22;29216;51.248;6.808;2023-02-15T19:17:50;8.10;1.00
43249;DHT22;29216;51.248;6.808;2023-02-15T19:20:20;8.20;1.00
43249;DHT22;29216;51.248;6.808;2023-02-15T19:22:48;8.10;1.00
43249;DHT22;29216;51.248;6.808;2023-02-15T19:25:21;8.10;1.00
43249;DHT22;29216;51.248;6.808;2023-02-15T19:27:49;8.00;1.00
43249;DHT22;29216;51.248;6.808;2023-02-15T19:30:24;8.00;1.00
43249;DHT22;29216;51.248;6.808;2023-02-15T19:32:57;7.90;1.00
43249;DHT22;29216;51.248;6.808;2023-02-15T19:35:28;7.90;1.00
43249;DHT22;29216;51.248;6.808;2023-02-15T19:37:56;7.80;1.00
43249;DHT22;29216;51.248;6.808;2023-02-15T19:40:28;7.80;1.00
43249;DHT22;29216;51.248;6.808;2023-02-15T19:42:54;7.70;1.00
43249;DHT22;29216;51.248;6.808;2023-02-15T19:45:22;7.60;1.00
43249;DHT22;29216;51.248;6.808;2023-02-15T19:47:48;7.50;1.00
43249;DHT22;29216;51.248;6.808;2023-02-15T19:50:19;7.40;3.30
43249;DHT22;29216;51.248;6.808;2023-02-15T19:52:45;7.50;1.00
43249;DHT22;29216;51.248;6.808;2023-02-15T19:55:23;7.50;1.00
43249;DHT22;29216;51.248;6.808;2023-02-15T19:57:54;7.50;1.00
43249;DHT22;29216;51.248;6.808;2023-02-15T20:00:25;7.50;1.00
43249;DHT22;29216;51.248;6.808;2023-02-15T20:02:52;7.40;1.40
43249;DHT22;29216;51.248;6.808;2023-02-15T20:05:19;7.40;2.70
43249;DHT22;29216;51.248;6.808;2023-02-15T20:07:46;7.30;6.20